Time,TemperatureF,DewpointF,PressureIn,WindDirection,WindDirectionDegrees,WindSpeedMPH,WindSpeedGustMPH,Humidity,HourlyPrecipIn,Conditions,Clouds,dailyrainin,SoftwareType,DateUTC
2013-03-09 00:03:00,35.0,21.0,-100.00,WNW,300,1.0,3.0,57,0.00,,,-99.99,,2013-03-09 05:03:00,
2013-03-09 00:12:00,33.0,20.0,-100.00,NW,315,2.0,4.0,59,0.00,,,-99.99,,2013-03-09 05:12:00,
2013-03-09 00:22:00,33.0,20.0,-100.00,NW,315,2.0,4.0,59,0.00,,,-99.99,,2013-03-09 05:22:00,
2013-03-09 00:32:00,33.0,21.0,-100.00,WNW,300,2.0,6.0,61,0.00,,,-99.99,,2013-03-09 05:32:00,
2013-03-09 00:42:00,34.0,22.0,-100.00,NW,315,3.0,8.0,61,0.00,,,-99.99,,2013-03-09 05:42:00,
2013-03-09 00:52:00,34.0,22.0,-100.00,NW,315,3.0,8.0,61,0.00,,,-99.99,,2013-03-09 05:52:00,
2013-03-09 01:02:00,34.0,22.0,-100.00,NNW,345,3.0,5.0,61,0.00,,,-99.99,,2013-03-09 06:02:00,
2013-03-09 01:11:00,33.0,21.0,-100.00,West,270,1.0,6.0,60,0.00,,,-99.99,,2013-03-09 06:11:00,
2013-03-09 01:22:00,33.0,21.0,-100.00,West,270,1.0,6.0,60,0.00,,,-99.99,,2013-03-09 06:22:00,
2013-03-09 01:32:00,33.0,21.0,-100.00,North,0,2.0,4.0,62,0.00,,,-99.99,,2013-03-09 06:32:00,
2013-03-09 01:42:00,33.0,21.0,-100.00,NNW,330,2.0,6.0,62,0.00,,,-99.99,,2013-03-09 06:42:00,
2013-03-09 01:51:00,33.0,21.0,-100.00,NNW,330,2.0,6.0,62,0.00,,,-99.99,,2013-03-09 06:51:00,
2013-03-09 02:01:00,33.0,21.0,-100.00,North,5,4.0,7.0,62,0.00,,,-99.99,,2013-03-09 07:01:00,
2013-03-09 02:11:00,32.0,21.0,-100.00,NNW,340,2.0,4.0,62,0.00,,,-99.99,,2013-03-09 07:11:00,
2013-03-09 02:21:00,32.0,21.0,-100.00,NNW,340,2.0,4.0,62,0.00,,,-99.99,,2013-03-09 07:21:00,
2013-03-09 02:32:00,32.0,21.0,-100.00,NNW,330,1.0,3.0,64,0.00,,,-99.99,,2013-03-09 07:32:00,
2013-03-09 02:42:00,32.0,21.0,-100.00,NW,315,2.0,5.0,64,0.00,,,-99.99,,2013-03-09 07:42:00,
2013-03-09 02:52:00,32.0,21.0,-100.00,NW,315,2.0,5.0,64,0.00,,,-99.99,,2013-03-09 07:52:00,
2013-03-09 03:01:00,32.0,21.0,-100.00,NNW,340,3.0,6.0,64,0.00,,,-99.99,,2013-03-09 08:01:00,
2013-03-09 03:11:00,31.0,21.0,-100.00,North,350,2.0,6.0,65,0.00,,,-99.99,,2013-03-09 08:11:00,
2013-03-09 03:22:00,31.0,21.0,-100.00,North,350,2.0,6.0,65,0.00,,,-99.99,,2013-03-09 08:22:00,
2013-03-09 03:32:00,32.0,21.0,-100.00,NNW,345,2.0,4.0,65,0.00,,,-99.99,,2013-03-09 08:32:00,
2013-03-09 03:42:00,32.0,21.0,-100.00,NNE,15,2.0,4.0,64,0.00,,,-99.99,,2013-03-09 08:42:00,
2013-03-09 03:52:00,32.0,21.0,-100.00,NNE,15,2.0,4.0,64,0.00,,,-99.99,,2013-03-09 08:52:00,
2013-03-09 04:02:00,32.0,21.0,-100.00,NE,35,2.0,2.0,64,0.00,,,-99.99,,2013-03-09 09:02:00,
2013-03-09 04:12:00,31.0,20.0,-100.00,North,5,1.0,3.0,63,0.00,,,-99.99,,2013-03-09 09:12:00,
2013-03-09 04:21:00,31.0,20.0,-100.00,North,5,1.0,3.0,63,0.00,,,-99.99,,2013-03-09 09:21:00,
2013-03-09 04:32:00,29.0,19.0,-100.00,NW,320,1.0,2.0,65,0.00,,,-99.99,,2013-03-09 09:32:00,
2013-03-09 04:42:00,28.0,19.0,-100.00,WNW,300,2.0,3.0,69,0.00,,,-99.99,,2013-03-09 09:42:00,
2013-03-09 04:52:00,28.0,19.0,-100.00,WNW,300,2.0,3.0,69,0.00,,,-99.99,,2013-03-09 09:52:00,
2013-03-09 05:01:00,28.0,20.0,-100.00,West,270,1.0,1.0,72,0.00,,,-99.99,,2013-03-09 10:01:00,
2013-03-09 05:11:00,29.0,21.0,-100.00,West,260,1.0,1.0,73,0.00,,,-99.99,,2013-03-09 10:11:00,
2013-03-09 05:21:00,29.0,21.0,-100.00,West,260,1.0,1.0,73,0.00,,,-99.99,,2013-03-09 10:21:00,
2013-03-09 05:32:00,28.0,20.0,-100.00,West,275,1.0,1.0,73,0.00,,,-99.99,,2013-03-09 10:32:00,
2013-03-09 05:42:00,30.0,22.0,-100.00,NNW,340,3.0,5.0,71,0.00,,,-99.99,,2013-03-09 10:42:00,
2013-03-09 05:52:00,30.0,22.0,-100.00,NNW,340,3.0,5.0,71,0.00,,,-99.99,,2013-03-09 10:52:00,
2013-03-09 06:11:00,29.0,21.0,-100.00,NW,325,0.0,1.0,72,0.00,,,-99.99,,2013-03-09 11:11:00,
2013-03-09 06:21:00,29.0,21.0,-100.00,NW,325,0.0,1.0,72,0.00,,,-99.99,,2013-03-09 11:21:00,
2013-03-09 06:32:00,30.0,22.0,-100.00,NNW,340,1.0,2.0,71,0.00,,,-99.99,,2013-03-09 11:32:00,
2013-03-09 06:42:00,28.0,20.0,-100.00,NW,305,1.0,1.0,71,0.00,,,-99.99,,2013-03-09 11:42:00,
2013-03-09 06:52:00,28.0,20.0,-100.00,NW,305,1.0,1.0,71,0.00,,,-99.99,,2013-03-09 11:52:00,
2013-03-09 07:02:00,28.0,20.0,-100.00,West,275,0.0,1.0,73,0.00,,,-99.99,,2013-03-09 12:02:00,
2013-03-09 07:11:00,29.0,21.0,-100.00,West,275,0.0,1.0,74,0.00,,,-99.99,,2013-03-09 12:11:00,
2013-03-09 07:21:00,29.0,21.0,-100.00,West,275,0.0,1.0,74,0.00,,,-99.99,,2013-03-09 12:21:00,
2013-03-09 07:32:00,29.0,22.0,-100.00,West,275,0.0,1.0,75,0.00,,,-99.99,,2013-03-09 12:32:00,
2013-03-09 07:42:00,33.0,24.0,-100.00,West,260,1.0,2.0,68,0.00,,,-99.99,,2013-03-09 12:42:00,
2013-03-09 07:52:00,33.0,24.0,-100.00,West,260,1.0,2.0,68,0.00,,,-99.99,,2013-03-09 12:52:00,
2013-03-09 08:02:00,35.0,25.0,-100.00,WNW,300,1.0,3.0,65,0.00,,,-99.99,,2013-03-09 13:02:00,
2013-03-09 08:11:00,38.0,24.0,-100.00,West,280,2.0,3.0,57,0.00,,,-99.99,,2013-03-09 13:11:00,
2013-03-09 08:21:00,38.0,24.0,-100.00,West,280,2.0,3.0,57,0.00,,,-99.99,,2013-03-09 13:21:00,
2013-03-09 08:32:00,39.0,24.0,-100.00,NW,320,3.0,4.0,54,0.00,,,-99.99,,2013-03-09 13:32:00,
2013-03-09 08:42:00,39.0,24.0,-100.00,West,280,2.0,5.0,53,0.00,,,-99.99,,2013-03-09 13:42:00,
2013-03-09 08:52:00,39.0,24.0,-100.00,West,280,2.0,5.0,53,0.00,,,-99.99,,2013-03-09 13:52:00,
2013-03-09 09:01:00,40.0,24.0,-100.00,NW,310,3.0,7.0,53,0.00,,,-99.99,,2013-03-09 14:01:00,
2013-03-09 09:11:00,42.0,25.0,-100.00,NW,305,2.0,5.0,50,0.00,,,-99.99,,2013-03-09 14:11:00,
2013-03-09 09:21:00,42.0,25.0,-100.00,NW,305,2.0,5.0,50,0.00,,,-99.99,,2013-03-09 14:21:00,
2013-03-09 09:32:00,43.0,24.0,-100.00,NNW,330,5.0,7.0,47,0.00,,,-99.99,,2013-03-09 14:32:00,
2013-03-09 09:42:00,43.0,24.0,-100.00,NW,310,2.0,7.0,46,0.00,,,-99.99,,2013-03-09 14:42:00,
2013-03-09 09:52:00,43.0,24.0,-100.00,NW,310,2.0,7.0,46,0.00,,,-99.99,,2013-03-09 14:52:00,
2013-03-09 10:02:00,45.0,24.0,-100.00,WNW,300,3.0,7.0,43,0.00,,,-99.99,,2013-03-09 15:02:00,
2013-03-09 10:12:00,44.0,23.0,-100.00,NNW,340,4.0,8.0,42,0.00,,,-99.99,,2013-03-09 15:12:00,
2013-03-09 10:22:00,44.0,23.0,-100.00,NNW,340,4.0,8.0,42,0.00,,,-99.99,,2013-03-09 15:22:00,
2013-03-09 10:32:00,45.0,23.0,-100.00,NNW,345,3.0,9.0,41,0.00,,,-99.99,,2013-03-09 15:32:00,
2013-03-09 10:42:00,46.0,23.0,-100.00,NNW,340,5.0,7.0,40,0.00,,,-99.99,,2013-03-09 15:42:00,
2013-03-09 10:52:00,46.0,23.0,-100.00,NNW,340,5.0,7.0,40,0.00,,,-99.99,,2013-03-09 15:52:00,
2013-03-09 11:01:00,45.0,22.0,-100.00,NNW,340,6.0,9.0,39,0.00,,,-99.99,,2013-03-09 16:01:00,
2013-03-09 11:11:00,47.0,22.0,-100.00,North,0,5.0,7.0,37,0.00,,,-99.99,,2013-03-09 16:11:00,
2013-03-09 11:21:00,47.0,22.0,-100.00,North,0,5.0,7.0,37,0.00,,,-99.99,,2013-03-09 16:21:00,
2013-03-09 11:32:00,47.0,22.0,-100.00,North,0,6.0,9.0,36,0.00,,,-99.99,,2013-03-09 16:32:00,
2013-03-09 11:42:00,49.0,23.0,-100.00,NNW,335,4.0,7.0,36,0.00,,,-99.99,,2013-03-09 16:42:00,
2013-03-09 11:51:00,49.0,23.0,-100.00,NNW,335,4.0,7.0,36,0.00,,,-99.99,,2013-03-09 16:51:00,
2013-03-09 12:01:00,49.0,22.0,-100.00,NNE,25,4.0,9.0,35,0.00,,,-99.99,,2013-03-09 17:01:00,
2013-03-09 12:11:00,52.0,24.0,-100.00,NW,310,5.0,9.0,33,0.00,,,-99.99,,2013-03-09 17:11:00,
2013-03-09 12:22:00,52.0,24.0,-100.00,NW,310,5.0,9.0,33,0.00,,,-99.99,,2013-03-09 17:22:00,
2013-03-09 12:32:00,52.0,24.0,-100.00,North,0,2.0,8.0,33,0.00,,,-99.99,,2013-03-09 17:32:00,
2013-03-09 12:42:00,54.0,24.0,-100.00,NW,315,4.0,7.0,32,0.00,,,-99.99,,2013-03-09 17:42:00,
2013-03-09 12:52:00,54.0,24.0,-100.00,NW,315,4.0,7.0,32,0.00,,,-99.99,,2013-03-09 17:52:00,
2013-03-09 13:02:00,52.0,23.0,-100.00,North,10,2.0,7.0,32,0.00,,,-99.99,,2013-03-09 18:02:00,
2013-03-09 13:11:00,56.0,25.0,-100.00,West,280,2.0,7.0,30,0.00,,,-99.99,,2013-03-09 18:11:00,
2013-03-09 13:21:00,56.0,25.0,-100.00,West,280,2.0,7.0,30,0.00,,,-99.99,,2013-03-09 18:21:00,
2013-03-09 13:32:00,54.0,23.0,-100.00,NNE,20,3.0,6.0,29,0.00,,,-99.99,,2013-03-09 18:32:00,
2013-03-09 13:42:00,56.0,24.0,-100.00,NW,310,4.0,7.0,29,0.00,,,-99.99,,2013-03-09 18:42:00,
2013-03-09 13:52:00,56.0,24.0,-100.00,NW,310,4.0,7.0,29,0.00,,,-99.99,,2013-03-09 18:52:00,
2013-03-09 14:02:00,57.0,24.0,-100.00,NW,305,4.0,6.0,28,0.00,,,-99.99,,2013-03-09 19:02:00,
2013-03-09 14:11:00,57.0,25.0,-100.00,WSW,250,2.0,5.0,29,0.00,,,-99.99,,2013-03-09 19:11:00,
2013-03-09 14:22:00,57.0,25.0,-100.00,WSW,250,2.0,5.0,29,0.00,,,-99.99,,2013-03-09 19:22:00,
2013-03-09 14:32:00,58.0,25.0,-100.00,WNW,300,3.0,7.0,28,0.00,,,-99.99,,2013-03-09 19:32:00,
2013-03-09 14:42:00,60.0,25.0,-100.00,West,270,3.0,7.0,26,0.00,,,-99.99,,2013-03-09 19:42:00,
2013-03-09 14:52:00,60.0,25.0,-100.00,West,270,3.0,7.0,26,0.00,,,-99.99,,2013-03-09 19:52:00,
2013-03-09 15:02:00,58.0,23.0,-100.00,NNE,15,4.0,5.0,26,0.00,,,-99.99,,2013-03-09 20:02:00,
2013-03-09 15:11:00,59.0,23.0,-100.00,NNE,20,1.0,6.0,25,0.00,,,-99.99,,2013-03-09 20:11:00,
2013-03-09 15:22:00,59.0,23.0,-100.00,NNE,20,1.0,6.0,25,0.00,,,-99.99,,2013-03-09 20:22:00,
2013-03-09 15:32:00,60.0,23.0,-100.00,NW,310,4.0,7.0,24,0.00,,,-99.99,,2013-03-09 20:32:00,
2013-03-09 15:42:00,59.0,22.0,-100.00,North,350,4.0,6.0,24,0.00,,,-99.99,,2013-03-09 20:42:00,
2013-03-09 15:52:00,59.0,22.0,-100.00,North,350,4.0,6.0,24,0.00,,,-99.99,,2013-03-09 20:52:00,
2013-03-09 16:02:00,60.0,22.0,-100.00,NW,320,3.0,6.0,23,0.00,,,-99.99,,2013-03-09 21:02:00,
2013-03-09 16:12:00,60.0,22.0,-100.00,NW,320,1.0,5.0,23,0.00,,,-99.99,,2013-03-09 21:12:00,
2013-03-09 16:22:00,60.0,22.0,-100.00,NW,320,1.0,5.0,23,0.00,,,-99.99,,2013-03-09 21:22:00,
2013-03-09 16:32:00,58.0,20.0,-100.00,NNE,20,2.0,4.0,23,0.00,,,-99.99,,2013-03-09 21:32:00,
2013-03-09 16:42:00,57.0,21.0,-100.00,NNW,335,3.0,6.0,24,0.00,,,-99.99,,2013-03-09 21:42:00,
2013-03-09 16:52:00,57.0,21.0,-100.00,NNW,335,3.0,6.0,24,0.00,,,-99.99,,2013-03-09 21:52:00,
2013-03-09 17:01:00,58.0,21.0,-100.00,NNW,340,3.0,6.0,24,0.00,,,-99.99,,2013-03-09 22:01:00,
2013-03-09 17:11:00,58.0,21.0,-100.00,NNE,20,2.0,4.0,24,0.00,,,-99.99,,2013-03-09 22:11:00,
2013-03-09 17:21:00,58.0,21.0,-100.00,NNE,20,2.0,4.0,24,0.00,,,-99.99,,2013-03-09 22:21:00,
2013-03-09 17:32:00,57.0,20.0,-100.00,North,350,3.0,5.0,24,0.00,,,-99.99,,2013-03-09 22:32:00,
2013-03-09 17:42:00,56.0,19.0,-100.00,NNE,30,2.0,6.0,24,0.00,,,-99.99,,2013-03-09 22:42:00,
2013-03-09 17:51:00,56.0,19.0,-100.00,NNE,30,2.0,6.0,24,0.00,,,-99.99,,2013-03-09 22:51:00,
2013-03-09 18:01:00,55.0,20.0,-100.00,NNE,20,2.0,3.0,25,0.00,,,-99.99,,2013-03-09 23:01:00,
2013-03-09 18:11:00,54.0,19.0,-100.00,North,10,0.0,2.0,25,0.00,,,-99.99,,2013-03-09 23:11:00,
2013-03-09 18:21:00,54.0,19.0,-100.00,North,10,0.0,2.0,25,0.00,,,-99.99,,2013-03-09 23:21:00,
2013-03-09 18:32:00,53.0,19.0,-100.00,ESE,120,1.0,2.0,26,0.00,,,-99.99,,2013-03-09 23:32:00,
2013-03-09 18:42:00,51.0,18.0,-100.00,ESE,120,1.0,2.0,27,0.00,,,-99.99,,2013-03-09 23:42:00,
2013-03-09 18:52:00,51.0,18.0,-100.00,ESE,120,1.0,2.0,27,0.00,,,-99.99,,2013-03-09 23:52:00,
2013-03-09 19:02:00,50.0,18.0,-100.00,ESE,115,1.0,1.0,28,0.00,,,-99.99,,2013-03-10 00:02:00,
2013-03-09 19:11:00,50.0,19.0,-100.00,SE,130,1.0,2.0,29,0.00,,,-99.99,,2013-03-10 00:11:00,
2013-03-09 19:22:00,50.0,19.0,-100.00,SE,130,1.0,2.0,29,0.00,,,-99.99,,2013-03-10 00:22:00,
2013-03-09 19:32:00,50.0,19.0,-100.00,SE,125,1.0,2.0,29,0.00,,,-99.99,,2013-03-10 00:32:00,
2013-03-09 19:42:00,49.0,19.0,-100.00,ESE,120,1.0,3.0,30,0.00,,,-99.99,,2013-03-10 00:42:00,
2013-03-09 19:52:00,49.0,19.0,-100.00,ESE,120,1.0,3.0,30,0.00,,,-99.99,,2013-03-10 00:52:00,
2013-03-09 20:01:00,49.0,19.0,-100.00,SE,130,0.0,2.0,30,0.00,,,-99.99,,2013-03-10 01:01:00,
2013-03-09 20:11:00,48.0,19.0,-100.00,SSE,150,2.0,3.0,31,0.00,,,-99.99,,2013-03-10 01:11:00,
2013-03-09 20:21:00,48.0,19.0,-100.00,SSE,150,2.0,3.0,31,0.00,,,-99.99,,2013-03-10 01:21:00,
2013-03-09 20:32:00,49.0,19.0,-100.00,SE,135,2.0,4.0,31,0.00,,,-99.99,,2013-03-10 01:32:00,
2013-03-09 20:42:00,47.0,19.0,-100.00,ESE,120,4.0,5.0,32,0.00,,,-99.99,,2013-03-10 01:42:00,
2013-03-09 20:52:00,47.0,19.0,-100.00,ESE,120,4.0,5.0,32,0.00,,,-99.99,,2013-03-10 01:52:00,
2013-03-09 21:01:00,46.0,19.0,-100.00,ESE,120,4.0,6.0,34,0.00,,,-99.99,,2013-03-10 02:01:00,
2013-03-09 21:11:00,45.0,20.0,-100.00,ESE,110,6.0,7.0,37,0.00,,,-99.99,,2013-03-10 02:11:00,
2013-03-09 21:22:00,45.0,20.0,-100.00,ESE,110,6.0,7.0,37,0.00,,,-99.99,,2013-03-10 02:22:00,
2013-03-09 21:32:00,45.0,21.0,-100.00,ESE,115,5.0,6.0,38,0.00,,,-99.99,,2013-03-10 02:32:00,
2013-03-09 21:42:00,44.0,21.0,-100.00,ESE,110,5.0,7.0,40,0.00,,,-99.99,,2013-03-10 02:42:00,
2013-03-09 21:52:00,44.0,21.0,-100.00,ESE,110,5.0,7.0,40,0.00,,,-99.99,,2013-03-10 02:52:00,
2013-03-09 22:02:00,43.0,22.0,-100.00,East,100,6.0,7.0,42,0.00,,,-99.99,,2013-03-10 03:02:00,
2013-03-09 22:12:00,43.0,22.0,-100.00,ESE,105,5.0,7.0,44,0.00,,,-99.99,,2013-03-10 03:12:00,
2013-03-09 22:22:00,43.0,22.0,-100.00,ESE,105,5.0,7.0,44,0.00,,,-99.99,,2013-03-10 03:22:00,
2013-03-09 22:32:00,42.0,23.0,-100.00,ESE,105,6.0,7.0,46,0.00,,,-99.99,,2013-03-10 03:32:00,
2013-03-09 22:42:00,42.0,23.0,-100.00,ESE,110,6.0,7.0,47,0.00,,,-99.99,,2013-03-10 03:42:00,
2013-03-09 22:52:00,42.0,23.0,-100.00,ESE,110,6.0,7.0,47,0.00,,,-99.99,,2013-03-10 03:52:00,
2013-03-09 23:01:00,38.0,22.0,-100.00,SW,215,1.0,3.0,52,0.00,,,-99.99,,2013-03-10 04:01:00,
2013-03-09 23:11:00,38.0,23.0,-100.00,South,190,1.0,2.0,54,0.00,,,-99.99,,2013-03-10 04:11:00,
2013-03-09 23:21:00,38.0,23.0,-100.00,South,190,1.0,2.0,54,0.00,,,-99.99,,2013-03-10 04:21:00,
2013-03-09 23:32:00,40.0,24.0,-100.00,ESE,115,1.0,2.0,54,0.00,,,-99.99,,2013-03-10 04:32:00,
2013-03-09 23:42:00,39.0,23.0,-100.00,ESE,105,1.0,4.0,54,0.00,,,-99.99,,2013-03-10 04:42:00,
2013-03-09 23:52:00,39.0,23.0,-100.00,ESE,105,1.0,4.0,54,0.00,,,-99.99,,2013-03-10 04:52:00,